Time;durP1;ratioP1;P1;durP2;ratioP2;P2;SDS_P1;SDS_P2;PMS_P1;PMS_P2;Temp;Humidity;BMP_temperature;BMP_pressure;BME280_temperature;BME280_humidity;BME280_pressure;Samples;Min_cycle;Max_cycle;Signal;HPM_P1;HPM_P2
2021/07/31 00:01:38;;;;;;;17.17;13.15;;;;;;;24.62;58.97;98427.38;5033636;28;20018;-51
2021/07/31 00:04:07;;;;;;;14.88;8.00;;;;;;;24.81;58.25;98426.47;5048970;28;20529;-51
2021/07/31 00:06:33;;;;;;;10.32;7.75;;;;;;;24.88;57.52;98419.59;5032192;28;20034;-51
2021/07/31 00:08:59;;;;;;;38.78;35.28;;;;;;;24.91;57.65;98412.84;5033599;28;20033;-51
2021/07/31 00:11:25;;;;;;;14.95;11.85;;;;;;;24.86;57.67;98408.38;5033559;28;20029;-51
2021/07/31 00:13:51;;;;;;;20.92;18.90;;;;;;;24.81;57.74;98411.19;5033348;28;20026;-51
2021/07/31 00:16:17;;;;;;;13.20;7.55;;;;;;;24.76;58.09;98419.34;5048717;28;20028;-51
2021/07/31 00:18:43;;;;;;;11.82;6.43;;;;;;;24.62;58.17;98418.56;5048417;28;20041;-51
2021/07/31 00:21:08;;;;;;;11.77;7.35;;;;;;;24.60;58.65;98408.13;5048601;28;20061;-51
2021/07/31 00:23:35;;;;;;;49.33;45.05;;;;;;;24.63;58.20;98414.75;5031955;28;20442;-51
2021/07/31 00:26:00;;;;;;;13.40;10.48;;;;;;;24.64;57.95;98416.38;5033221;28;20040;-51
2021/07/31 00:28:27;;;;;;;34.22;30.88;;;;;;;24.67;57.91;98410.38;5048451;28;20029;-51
2021/07/31 00:30:52;;;;;;;17.48;9.23;;;;;;;24.69;57.80;98406.31;5033082;28;20036;-51
2021/07/31 00:33:19;;;;;;;431.17;387.50;;;;;;;24.57;57.88;98408.72;5048331;28;20029;-51
2021/07/31 00:35:45;;;;;;;25.70;22.98;;;;;;;24.32;58.44;98405.41;5031610;28;20030;-51
2021/07/31 00:38:11;;;;;;;10.55;6.28;;;;;;;24.18;58.97;98401.91;5032982;28;20025;-51
2021/07/31 00:40:36;;;;;;;35.88;31.50;;;;;;;23.76;59.38;98401.00;5032933;28;20438;-51
2021/07/31 00:43:07;;;;;;;1200.68;834.05;;;;;;;23.31;62.22;98396.09;5031556;28;20036;-51
2021/07/31 00:45:33;;;;;;;1340.22;638.90;;;;;;;23.34;62.56;98397.41;5031434;28;20021;-51
2021/07/31 00:48:00;;;;;;;165.20;95.78;;;;;;;23.55;62.36;98389.84;5032806;28;20032;-51
2021/07/31 00:50:26;;;;;;;32.03;29.15;;;;;;;23.64;61.08;98374.72;5032740;28;20443;-51
2021/07/31 00:52:52;;;;;;;25.13;22.40;;;;;;;23.39;61.80;98389.28;5032366;28;20028;-51
2021/07/31 00:55:18;;;;;;;78.68;50.15;;;;;;;23.16;62.09;98382.97;5047825;28;20021;-51
2021/07/31 00:57:47;;;;;;;39.78;28.50;;;;;;;23.27;62.31;98387.06;5032593;28;20531;-51
2021/07/31 01:00:13;;;;;;;11.73;7.72;;;;;;;23.24;61.06;98387.66;5032601;28;20381;-50
2021/07/31 01:02:39;;;;;;;13.88;12.40;;;;;;;22.85;61.21;98387.91;5032465;28;20041;-51
2021/07/31 01:05:05;;;;;;;11.90;8.63;;;;;;;22.53;62.38;98384.81;5032478;28;20014;-51
2021/07/31 01:07:34;;;;;;;20.45;11.07;;;;;;;22.43;62.39;98381.47;5047652;28;20083;-51
2021/07/31 01:10:00;;;;;;;15.90;10.82;;;;;;;22.61;62.41;98385.25;5031087;28;20092;-51
2021/07/31 01:12:26;;;;;;;21.65;10.60;;;;;;;22.87;62.11;98383.84;5032413;28;20017;-51
2021/07/31 01:14:51;;;;;;;20.33;10.32;;;;;;;23.10;61.92;98376.06;5032322;28;20487;-51
2021/07/31 01:17:17;;;;;;;11.13;7.88;;;;;;;22.93;61.90;98382.69;5030967;28;20182;-51
2021/07/31 01:19:43;;;;;;;25.60;19.00;;;;;;;22.65;62.62;98378.25;5047320;28;20056;-51
2021/07/31 01:22:09;;;;;;;17.50;8.35;;;;;;;22.63;63.08;98369.72;5032223;28;20028;-51
2021/07/31 01:24:34;;;;;;;25.83;22.23;;;;;;;22.78;63.17;98363.38;5047452;28;20518;-51
2021/07/31 01:27:00;;;;;;;11.88;9.85;;;;;;;23.15;62.80;98354.59;5032111;28;20156;-51
2021/07/31 01:29:27;;;;;;;85.68;77.32;;;;;;;23.44;61.71;98361.63;5032088;28;20104;-51
2021/07/31 01:31:53;;;;;;;21.75;13.23;;;;;;;23.49;61.18;98364.25;5030756;28;20025;-51
2021/07/31 01:34:18;;;;;;;94.53;86.32;;;;;;;23.39;61.18;98377.78;5031967;28;20025;-50
2021/07/31 01:36:44;;;;;;;12.48;8.25;;;;;;;23.35;61.04;98382.94;5047250;28;20117;-51
2021/07/31 01:39:10;;;;;;;10.00;6.22;;;;;;;23.26;60.75;98390.03;5031949;28;20025;-51
2021/07/31 01:41:35;;;;;;;27.83;20.75;;;;;;;23.27;61.30;98392.41;5031885;28;20021;-51
2021/07/31 01:44:01;;;;;;;7.93;6.13;;;;;;;23.64;60.58;98392.66;5031958;28;20095;-51
2021/07/31 01:46:27;;;;;;;18.98;12.05;;;;;;;23.88;59.88;98390.66;5030606;28;20025;-51
2021/07/31 01:48:52;;;;;;;52.55;47.47;;;;;;;24.10;59.32;98391.88;5047098;28;20120;-50
2021/07/31 01:51:18;;;;;;;42.15;38.08;;;;;;;24.26;58.43;98397.75;5047118;28;20067;-51
2021/07/31 01:53:44;;;;;;;8.20;6.75;;;;;;;24.12;58.20;98395.84;5031792;28;20064;-51
2021/07/31 01:56:09;;;;;;;103.20;94.05;;;;;;;23.79;58.15;98386.28;5047057;28;20036;-51
2021/07/31 01:58:35;;;;;;;13.85;12.45;;;;;;;23.47;59.00;98394.00;5031790;28;20380;-51
2021/07/31 02:01:01;;;;;;;9.93;7.43;;;;;;;23.27;59.63;98394.31;5047051;28;20438;-51
2021/07/31 02:03:27;;;;;;;11.23;10.02;;;;;;;23.17;59.66;98384.53;5030434;28;20068;-51
2021/07/31 02:05:53;;;;;;;20.70;16.27;;;;;;;23.08;60.44;98391.63;5033995;28;20026;-51
2021/07/31 02:08:19;;;;;;;12.23;8.00;;;;;;;23.05;60.77;98387.66;5035866;28;20025;-51
2021/07/31 02:10:45;;;;;;;11.40;8.77;;;;;;;23.06;61.23;98386.56;5035774;28;20372;-51
2021/07/31 02:13:11;;;;;;;41.58;37.72;;;;;;;23.05;61.31;98376.16;5035671;28;20439;-51
2021/07/31 02:15:45;;;;;;;21.55;19.15;;;;;;;23.07;61.14;98371.31;5035917;28;20104;-51
2021/07/31 02:18:12;;;;;;;14.93;9.23;;;;;;;23.07;61.10;98361.38;5035424;28;20041;-51
2021/07/31 02:20:41;;;;;;;9.63;7.95;;;;;;;23.12;61.03;98369.34;5035613;28;20049;-51
2021/07/31 02:23:07;;;;;;;37.17;33.38;;;;;;;23.12;61.12;98369.34;5035542;28;20108;-51
2021/07/31 02:25:33;;;;;;;13.35;9.63;;;;;;;23.13;60.74;98375.50;5034137;28;20026;-51
2021/07/31 02:27:58;;;;;;;10.52;7.43;;;;;;;23.11;61.00;98373.09;5035482;28;20029;-51
2021/07/31 02:30:25;;;;;;;11.82;7.68;;;;;;;23.10;61.27;98368.84;5035375;28;20063;-51
2021/07/31 02:32:50;;;;;;;14.63;8.43;;;;;;;23.10;61.39;98371.53;5034070;28;20068;-51
2021/07/31 02:35:16;;;;;;;10.10;9.02;;;;;;;23.12;61.03;98365.88;5035239;28;20045;-51
2021/07/31 02:37:45;;;;;;;17.77;8.02;;;;;;;23.12;60.88;98361.31;5050585;28;20030;-51
2021/07/31 02:40:11;;;;;;;12.38;9.45;;;;;;;23.11;61.15;98367.75;5035264;28;20104;-51
2021/07/31 02:42:37;;;;;;;18.90;14.63;;;;;;;23.13;61.32;98367.47;5050505;28;20080;-52
2021/07/31 02:45:05;;;;;;;14.07;8.23;;;;;;;23.34;60.97;98362.59;5050436;28;20025;-51
2021/07/31 02:47:31;;;;;;;14.07;8.07;;;;;;;23.68;60.35;98348.91;5035038;28;20036;-51
2021/07/31 02:49:57;;;;;;;17.42;12.50;;;;;;;23.85;59.78;98350.25;5035150;28;20026;-51
2021/07/31 02:52:23;;;;;;;35.95;32.97;;;;;;;24.12;59.09;98350.25;5033638;28;20025;-51
2021/07/31 02:54:51;;;;;;;9.82;5.70;;;;;;;24.42;57.47;98352.66;5050220;28;20116;-51
2021/07/31 02:57:17;;;;;;;10.25;6.43;;;;;;;24.37;56.49;98345.50;5050167;28;20029;-51
2021/07/31 02:59:43;;;;;;;15.45;12.20;;;;;;;24.12;57.43;98344.13;5050151;28;20040;-51
2021/07/31 03:02:09;;;;;;;13.48;8.35;;;;;;;23.86;58.21;98346.47;5034823;28;20030;-51
2021/07/31 03:04:35;;;;;;;31.00;28.27;;;;;;;23.87;58.68;98340.81;5033429;28;20549;-51
2021/07/31 03:07:00;;;;;;;11.98;8.13;;;;;;;24.05;58.06;98341.84;5034707;28;20034;-51
2021/07/31 03:09:26;;;;;;;12.23;10.07;;;;;;;24.01;58.27;98343.53;5033373;28;20017;-51
2021/07/31 03:11:51;;;;;;;20.20;17.95;;;;;;;23.92;58.56;98338.06;5049964;28;20112;-51
2021/07/31 03:14:17;;;;;;;17.42;8.45;;;;;;;24.03;58.37;98344.03;5034531;28;20029;-51
2021/07/31 03:16:43;;;;;;;10.40;8.13;;;;;;;24.05;58.16;98341.84;5034243;28;20514;-51
2021/07/31 03:19:09;;;;;;;14.05;10.25;;;;;;;23.98;58.06;98337.97;5034354;28;20134;-51
2021/07/31 03:21:35;;;;;;;12.55;11.00;;;;;;;24.01;58.17;98340.06;5034495;28;20051;-51
2021/07/31 03:24:00;;;;;;;13.00;10.50;;;;;;;24.16;58.04;98338.97;5034705;28;20029;-51
2021/07/31 03:26:26;;;;;;;18.08;14.68;;;;;;;24.34;57.87;98335.38;5034376;28;20399;-51
2021/07/31 03:28:52;;;;;;;21.27;15.57;;;;;;;24.46;57.33;98335.66;5049596;28;20033;-51
2021/07/31 03:31:22;;;;;;;38.45;34.92;;;;;;;24.54;56.98;98336.09;5049540;28;20570;-51
2021/07/31 03:33:48;;;;;;;18.35;13.77;;;;;;;24.49;56.33;98335.06;5049450;28;20029;-51
2021/07/31 03:36:14;;;;;;;21.80;13.05;;;;;;;24.41;56.24;98333.09;5049488;28;20022;-52
2021/07/31 03:38:40;;;;;;;20.45;14.85;;;;;;;24.30;56.56;98335.16;5049531;28;20048;-51
2021/07/31 03:41:06;;;;;;;7.60;6.57;;;;;;;24.28;56.59;98333.88;5049399;28;20484;-51
2021/07/31 03:43:34;;;;;;;18.88;17.00;;;;;;;24.29;56.55;98333.59;5049409;28;20033;-51
2021/07/31 03:46:07;;;;;;;14.90;8.98;;;;;;;24.35;56.14;98338.84;5034037;28;20037;-51
2021/07/31 03:48:33;;;;;;;11.30;8.52;;;;;;;24.36;55.94;98338.56;5033959;28;20391;-51
2021/07/31 03:50:58;;;;;;;8.07;4.25;;;;;;;24.37;55.06;98342.00;5033954;28;20025;-51
2021/07/31 03:53:24;;;;;;;14.18;10.48;;;;;;;24.31;55.60;98344.03;5032476;28;20033;-51
2021/07/31 03:55:50;;;;;;;11.90;8.60;;;;;;;24.37;55.76;98336.66;5033839;28;20430;-52
2021/07/31 03:58:16;;;;;;;10.98;5.88;;;;;;;24.32;55.43;98329.50;5033819;28;20056;-51
2021/07/31 04:00:44;;;;;;;8.88;5.35;;;;;;;24.25;55.24;98329.91;5033724;28;20507;-51
2021/07/31 04:03:11;;;;;;;103.35;90.03;;;;;;;24.14;55.63;98331.22;5033721;28;20025;-51
2021/07/31 04:05:40;;;;;;;19.27;13.50;;;;;;;24.13;55.27;98332.31;5033647;28;20061;-51
2021/07/31 04:08:06;;;;;;;10.50;6.10;;;;;;;23.85;55.55;98328.81;5033601;28;20026;-51
2021/07/31 04:10:34;;;;;;;15.45;5.32;;;;;;;23.69;56.60;98321.03;5032226;28;20186;-51
2021/07/31 04:13:00;;;;;;;30.92;27.70;;;;;;;23.76;56.16;98323.31;5033537;28;20052;-51
2021/07/31 04:15:25;;;;;;;8.82;6.18;;;;;;;23.62;56.16;98323.28;5033635;28;20383;-51
2021/07/31 04:17:51;;;;;;;10.45;6.65;;;;;;;23.33;57.04;98326.19;5033205;28;20531;-51
2021/07/31 04:20:17;;;;;;;21.75;19.63;;;;;;;23.39;56.90;98337.63;5033416;28;20535;-51
2021/07/31 04:22:42;;;;;;;15.88;9.82;;;;;;;23.44;56.60;98324.94;5033357;28;20041;-51
2021/07/31 04:25:09;;;;;;;12.38;10.55;;;;;;;23.73;56.67;98313.97;5048542;28;20084;-51
2021/07/31 04:27:34;;;;;;;12.45;6.35;;;;;;;23.99;55.53;98320.78;5047853;28;20068;-51
2021/07/31 04:30:01;;;;;;;13.57;6.05;;;;;;;24.05;55.38;98323.06;5033197;28;20450;-52
2021/07/31 04:32:29;;;;;;;13.48;9.48;;;;;;;24.10;55.07;98325.63;5033150;28;20049;-51
2021/07/31 04:34:55;;;;;;;8.57;5.43;;;;;;;24.06;54.84;98331.91;5033067;28;20013;-52
2021/07/31 04:37:21;;;;;;;11.13;5.70;;;;;;;23.90;54.81;98329.53;5032976;28;20617;-51
2021/07/31 04:39:46;;;;;;;9.35;4.07;;;;;;;23.82;54.77;98321.38;5032933;28;20028;-51
2021/07/31 04:42:12;;;;;;;13.65;7.90;;;;;;;23.73;55.15;98332.72;5048190;28;20025;-51
2021/07/31 04:44:38;;;;;;;13.02;7.03;;;;;;;23.64;55.45;98329.16;5032917;28;20039;-51
2021/07/31 04:47:03;;;;;;;12.95;4.85;;;;;;;23.68;55.64;98324.00;5032818;28;20056;-52
2021/07/31 04:49:29;;;;;;;13.18;5.70;;;;;;;23.76;55.30;98320.63;5048149;28;20466;-52
2021/07/31 04:51:55;;;;;;;10.95;4.28;;;;;;;23.84;54.88;98324.53;5032785;28;20537;-51
2021/07/31 04:54:20;;;;;;;8.35;5.95;;;;;;;23.74;55.06;98330.84;5032611;28;20021;-51
2021/07/31 04:56:46;;;;;;;8.10;4.72;;;;;;;23.65;55.41;98328.06;5032706;28;20021;-51
2021/07/31 04:59:12;;;;;;;13.68;5.60;;;;;;;23.56;55.63;98319.09;5047923;28;20026;-51
2021/07/31 05:01:37;;;;;;;7.53;4.03;;;;;;;23.45;55.81;98315.81;5032568;28;20021;-52
2021/07/31 05:04:03;;;;;;;10.55;4.15;;;;;;;23.37;56.03;98321.84;5032603;28;20017;-51
2021/07/31 05:06:30;;;;;;;9.10;4.65;;;;;;;23.40;55.95;98325.81;5032463;28;20025;-51
2021/07/31 05:08:56;;;;;;;25.85;19.80;;;;;;;23.47;55.80;98324.34;5032512;28;20024;-51
2021/07/31 05:11:21;;;;;;;31.40;27.48;;;;;;;23.62;55.61;98320.59;5032386;28;20399;-51
2021/07/31 05:13:51;;;;;;;131.38;118.30;;;;;;;23.97;54.67;98326.44;5032288;28;20387;-51
2021/07/31 05:16:18;;;;;;;36.22;28.45;;;;;;;24.29;54.08;98325.56;5032271;28;20022;-51
2021/07/31 05:18:44;;;;;;;22.33;17.52;;;;;;;24.51;53.48;98324.84;5032099;28;20124;-51
2021/07/31 05:21:10;;;;;;;6.28;5.07;;;;;;;24.48;52.76;98330.78;5047478;28;20112;-51
2021/07/31 05:23:37;;;;;;;8.95;4.65;;;;;;;24.28;53.57;98331.19;5032206;28;20037;-51
2021/07/31 05:26:03;;;;;;;13.32;10.25;;;;;;;24.12;53.87;98334.19;5047446;28;20017;-51
2021/07/31 05:28:28;;;;;;;25.58;21.42;;;;;;;24.26;53.85;98339.53;5032120;28;20036;-51
2021/07/31 05:30:54;;;;;;;11.82;8.90;;;;;;;24.40;53.46;98339.53;5032102;28;20487;-51
2021/07/31 05:33:20;;;;;;;6.40;4.10;;;;;;;24.46;53.46;98341.00;5031995;28;20510;-51
2021/07/31 05:35:46;;;;;;;33.10;26.42;;;;;;;24.47;53.40;98336.47;5031936;28;20021;-51
2021/07/31 05:38:11;;;;;;;83.80;65.75;;;;;;;24.65;53.45;98349.00;5031871;28;20373;-51
2021/07/31 05:40:37;;;;;;;22.85;20.38;;;;;;;25.31;52.29;98349.41;5047222;28;20607;-51
2021/07/31 05:43:04;;;;;;;52.30;37.20;;;;;;;26.32;49.20;98346.28;5032196;28;20131;-51
2021/07/31 05:45:30;;;;;;;22.33;12.10;;;;;;;27.08;47.49;98354.00;5032150;28;20034;-51
2021/07/31 05:47:58;;;;;;;7.38;3.45;;;;;;;27.88;45.51;98353.56;5031930;28;20101;-51
2021/07/31 05:50:24;;;;;;;15.25;7.22;;;;;;;27.61;45.30;98354.75;5031857;28;20092;-52
2021/07/31 05:52:50;;;;;;;9.80;7.57;;;;;;;27.08;45.96;98351.31;5031861;28;20108;-51
2021/07/31 05:55:15;;;;;;;5.43;3.65;;;;;;;26.72;47.05;98348.13;5031676;28;20027;-51
2021/07/31 05:57:41;;;;;;;11.23;3.80;;;;;;;26.42;47.51;98351.38;5031757;28;20040;-52
2021/07/31 06:00:07;;;;;;;9.57;5.95;;;;;;;26.73;46.87;98336.25;5047048;28;20108;-52
2021/07/31 06:02:33;;;;;;;8.57;4.07;;;;;;;26.89;47.03;98335.47;5047031;28;20033;-51
2021/07/31 06:04:58;;;;;;;5.90;3.38;;;;;;;27.93;44.34;98322.97;5031709;28;20387;-51
2021/07/31 06:07:24;;;;;;;5.80;3.22;;;;;;;28.85;42.07;98319.53;5031715;28;20511;-51
2021/07/31 06:09:55;;;;;;;6.03;3.40;;;;;;;29.38;40.76;98322.63;5031682;28;20048;-51
2021/07/31 06:12:22;;;;;;;11.68;7.38;;;;;;;30.46;38.54;98318.78;5031647;28;20057;-51
2021/07/31 06:14:48;;;;;;;6.75;3.53;;;;;;;31.41;36.46;98322.97;5031582;28;20013;-52
2021/07/31 06:17:14;;;;;;;14.30;7.13;;;;;;;31.89;36.22;98315.69;5030255;28;20107;-51
2021/07/31 06:19:41;;;;;;;12.52;4.43;;;;;;;32.67;34.20;98317.88;5031413;28;20128;-52
2021/07/31 06:22:07;;;;;;;15.02;12.85;;;;;;;33.53;32.66;98320.31;5031500;28;20064;-52
2021/07/31 06:24:33;;;;;;;6.28;3.00;;;;;;;33.49;31.99;98324.91;5031551;28;20099;-52
2021/07/31 06:26:59;;;;;;;5.72;2.60;;;;;;;32.54;33.87;98319.88;5031503;28;20487;-51
2021/07/31 06:29:25;;;;;;;10.95;4.85;;;;;;;31.02;36.03;98314.59;5031456;28;20025;-51
2021/07/31 06:31:51;;;;;;;6.95;2.35;;;;;;;30.48;37.22;98321.13;5031448;28;20021;-52
2021/07/31 06:34:18;;;;;;;13.00;2.92;;;;;;;31.41;35.93;98325.69;5031458;28;20029;-51
2021/07/31 06:36:44;;;;;;;6.90;2.70;;;;;;;32.99;33.00;98315.78;5031766;28;20035;-52
2021/07/31 06:39:10;;;;;;;10.18;3.50;;;;;;;34.05;31.49;98309.91;5030045;28;20399;-51
2021/07/31 06:41:37;;;;;;;4.78;3.10;;;;;;;34.97;29.79;98306.09;5031379;28;20018;-52
2021/07/31 06:44:03;;;;;;;8.90;2.33;;;;;;;35.54;28.63;98312.16;5031479;28;20503;-52
2021/07/31 06:46:29;;;;;;;6.43;2.50;;;;;;;36.02;27.98;98322.31;5031444;28;20029;-49
2021/07/31 06:48:56;;;;;;;6.10;3.58;;;;;;;36.71;26.67;98307.91;5031443;28;20432;-49
2021/07/31 06:51:23;;;;;;;6.75;2.47;;;;;;;36.55;26.54;98312.91;5032656;28;20022;-49
2021/07/31 06:53:50;;;;;;;7.38;3.33;;;;;;;36.10;27.50;98312.22;5035053;28;20120;-50
2021/07/31 06:56:17;;;;;;;6.32;2.10;;;;;;;36.69;25.85;98310.25;5050287;28;20026;-49
2021/07/31 06:58:42;;;;;;;6.85;2.90;;;;;;;37.38;25.42;98312.03;5050253;28;20025;-50
2021/07/31 07:01:09;;;;;;;5.15;2.13;;;;;;;37.50;24.83;98301.88;5034874;28;20064;-49
2021/07/31 07:03:35;;;;;;;5.80;1.67;;;;;;;37.42;24.77;98311.25;5033515;28;20041;-49
2021/07/31 07:06:05;;;;;;;7.55;2.65;;;;;;;37.60;24.66;98308.56;5034819;28;20018;-49
2021/07/31 07:08:32;;;;;;;5.90;2.22;;;;;;;37.76;24.76;98298.00;5034662;28;20025;-49
2021/07/31 07:10:58;;;;;;;16.77;13.18;;;;;;;37.78;23.86;98301.91;5033345;28;20028;-49
2021/07/31 07:13:24;;;;;;;6.15;1.90;;;;;;;37.95;24.02;98305.00;5034597;28;20021;-49
2021/07/31 07:15:49;;;;;;;5.90;1.75;;;;;;;37.84;23.54;98307.78;5049885;28;20109;-49
2021/07/31 07:18:15;;;;;;;2.88;1.90;;;;;;;38.05;24.12;98308.91;5034288;28;20045;-49
2021/07/31 07:20:41;;;;;;;8.57;3.40;;;;;;;38.25;23.51;98310.06;5034548;28;20495;-49
2021/07/31 07:23:07;;;;;;;5.18;1.80;;;;;;;38.23;22.79;98314.38;5034448;28;20037;-49
2021/07/31 07:25:33;;;;;;;2.95;1.65;;;;;;;37.88;23.98;98308.53;5049707;28;20095;-49
2021/07/31 07:28:00;;;;;;;7.03;2.17;;;;;;;37.76;23.90;98314.44;5034431;28;20029;-49
2021/07/31 07:30:26;;;;;;;3.63;1.83;;;;;;;37.56;23.37;98308.53;5034338;28;20167;-49
2021/07/31 07:32:52;;;;;;;5.97;1.88;;;;;;;36.87;23.04;98309.53;5049594;28;20502;-49
2021/07/31 07:35:17;;;;;;;4.68;1.88;;;;;;;36.24;24.48;98311.53;5034151;28;20025;-49
2021/07/31 07:37:43;;;;;;;2.67;1.25;;;;;;;36.11;24.49;98324.72;5049607;28;20067;-49
2021/07/31 07:40:10;;;;;;;5.40;1.63;;;;;;;36.18;24.24;98320.13;5034154;28;20030;-50
2021/07/31 07:42:38;;;;;;;3.28;1.20;;;;;;;36.55;24.11;98315.63;5049473;28;20036;-51
2021/07/31 07:45:06;;;;;;;4.40;1.42;;;;;;;37.49;23.27;98309.31;5034122;28;20167;-52
2021/07/31 07:47:32;;;;;;;7.15;2.00;;;;;;;38.39;22.32;98290.06;5034330;28;20079;-51
2021/07/31 07:49:59;;;;;;;5.28;1.42;;;;;;;38.90;21.14;98275.00;5033991;28;20430;-51
2021/07/31 07:52:25;;;;;;;7.05;2.20;;;;;;;38.86;21.14;98285.19;5033953;28;20095;-51
2021/07/31 07:54:50;;;;;;;6.90;2.15;;;;;;;38.35;21.47;98290.09;5049096;28;20124;-51
2021/07/31 07:57:17;;;;;;;2.85;1.35;;;;;;;38.14;21.88;98310.09;5033826;28;20013;-51
2021/07/31 07:59:43;;;;;;;5.60;2.03;;;;;;;37.84;22.05;98324.19;5033820;28;20030;-52
2021/07/31 08:02:08;;;;;;;7.75;2.30;;;;;;;36.90;23.32;98323.22;5031819;28;20121;-51
2021/07/31 08:04:34;;;;;;;4.30;1.52;;;;;;;36.13;24.19;98333.31;5048492;28;20025;-52
2021/07/31 08:07:00;;;;;;;4.30;1.60;;;;;;;35.60;24.66;98318.06;5033640;28;20037;-51
2021/07/31 08:09:26;;;;;;;8.32;1.95;;;;;;;36.01;24.28;98320.75;5033903;28;20549;-50
2021/07/31 08:11:52;;;;;;;6.65;1.42;;;;;;;36.78;23.02;98323.56;5033601;28;20051;-52
2021/07/31 08:14:18;;;;;;;7.20;1.80;;;;;;;36.58;23.26;98325.78;5033553;28;20025;-51
2021/07/31 08:16:44;;;;;;;6.38;1.50;;;;;;;36.44;23.80;98314.78;5033739;28;20117;-52
2021/07/31 08:19:10;;;;;;;6.88;2.00;;;;;;;36.27;23.85;98308.84;5033145;28;20084;-51
2021/07/31 08:21:39;;;;;;;4.00;1.60;;;;;;;35.49;24.38;98307.03;5048717;28;20025;-49
2021/07/31 08:24:06;;;;;;;6.05;1.88;;;;;;;35.02;25.34;98303.03;5048621;28;20048;-50
2021/07/31 08:26:35;;;;;;;10.68;2.58;;;;;;;33.97;26.82;98305.50;5031965;28;20017;-50
2021/07/31 08:29:02;;;;;;;9.13;1.73;;;;;;;34.12;26.57;98299.09;5048457;28;20494;-50
2021/07/31 08:31:28;;;;;;;11.85;4.82;;;;;;;34.71;25.90;98296.84;5033174;28;20096;-50
2021/07/31 08:33:54;;;;;;;7.40;1.88;;;;;;;34.81;25.81;98309.00;5032996;28;20032;-50
2021/07/31 08:36:20;;;;;;;4.55;1.50;;;;;;;34.61;25.74;98320.06;5033103;28;20077;-50
2021/07/31 08:38:45;;;;;;;5.65;1.70;;;;;;;34.34;26.05;98321.25;5033053;28;20025;-49
2021/07/31 08:41:14;;;;;;;5.28;1.40;;;;;;;34.03;26.66;98323.88;5032989;28;20488;-49
2021/07/31 08:43:40;;;;;;;7.85;2.08;;;;;;;33.67;27.30;98333.41;5048195;28;20039;-49
2021/07/31 08:46:08;;;;;;;12.65;4.18;;;;;;;33.61;27.64;98326.66;5032903;28;20025;-49
2021/07/31 08:48:35;;;;;;;10.60;1.70;;;;;;;34.08;27.10;98332.88;5032885;28;20029;-50
2021/07/31 08:51:02;;;;;;;7.72;1.92;;;;;;;35.20;25.50;98341.44;5031695;28;20407;-50
2021/07/31 08:53:30;;;;;;;8.48;2.00;;;;;;;35.84;25.02;98338.56;5032731;28;20075;-49
2021/07/31 08:55:57;;;;;;;2.47;1.50;;;;;;;36.31;24.57;98331.50;5032690;28;20052;-50
2021/07/31 08:58:23;;;;;;;5.43;1.42;;;;;;;36.75;23.96;98321.63;5032758;28;20025;-49
2021/07/31 09:00:53;;;;;;;4.63;1.50;;;;;;;36.42;24.21;98336.25;5032601;28;20031;-49
2021/07/31 09:03:20;;;;;;;6.03;1.95;;;;;;;35.63;24.89;98347.31;5047882;28;20128;-49
2021/07/31 09:05:46;;;;;;;5.15;1.48;;;;;;;34.87;25.49;98336.75;5032530;28;20101;-50
2021/07/31 09:08:12;;;;;;;7.22;1.90;;;;;;;34.14;26.73;98328.72;5032507;28;20491;-49
2021/07/31 09:10:46;;;;;;;2.53;1.42;;;;;;;33.40;27.41;98324.34;5031143;28;20037;-49
2021/07/31 09:13:17;;;;;;;4.05;1.50;;;;;;;32.53;28.96;98324.53;5032459;28;20391;-50
2021/07/31 09:15:44;;;;;;;3.75;1.40;;;;;;;31.56;30.51;98319.53;5032060;28;20022;-49
2021/07/31 09:18:29;;;;;;;8.73;2.05;;;;;;;30.62;31.55;98316.13;5047297;28;20056;-49
2021/07/31 09:20:56;;;;;;;8.57;1.50;;;;;;;30.12;33.00;98320.00;5032374;28;20068;-49
2021/07/31 09:23:22;;;;;;;10.35;1.98;;;;;;;29.98;33.55;98311.44;5030976;28;20025;-49
2021/07/31 09:26:00;;;;;;;5.95;1.90;;;;;;;30.15;33.61;98315.84;5032174;28;20040;-50
2021/07/31 09:28:27;;;;;;;10.32;4.95;;;;;;;30.92;32.30;98315.84;5032182;28;20511;-51
2021/07/31 09:30:53;;;;;;;5.60;1.40;;;;;;;31.62;31.42;98318.13;5032178;28;20490;-51
2021/07/31 09:33:19;;;;;;;27.73;23.80;;;;;;;31.82;30.45;98310.09;5032052;28;20104;-51
2021/07/31 09:36:02;;;;;;;7.30;2.78;;;;;;;31.81;30.54;98306.59;5032019;28;20029;-52
2021/07/31 09:38:38;;;;;;;7.15;2.50;;;;;;;31.54;30.74;98291.97;5032129;28;20024;-51
2021/07/31 09:41:32;;;;;;;8.32;1.70;;;;;;;31.02;31.57;98295.59;5032014;28;20029;-51
2021/07/31 09:44:01;;;;;;;8.35;2.10;;;;;;;30.51;32.70;98292.59;5032106;28;20057;-51
2021/07/31 09:46:45;;;;;;;4.85;1.73;;;;;;;30.27;33.06;98275.25;5047209;28;20132;-51
2021/07/31 09:49:13;;;;;;;8.13;2.00;;;;;;;30.14;33.50;98268.25;5031944;28;20030;-51
2021/07/31 09:52:00;;;;;;;5.57;2.00;;;;;;;29.95;33.43;98266.13;5047134;28;20407;-52
2021/07/31 09:54:27;;;;;;;5.60;1.60;;;;;;;29.78;33.89;98259.84;5031539;28;20034;-51
2021/07/31 09:56:55;;;;;;;4.80;1.90;;;;;;;29.76;33.76;98255.88;5031807;28;20079;-51
2021/07/31 09:59:22;;;;;;;7.53;1.70;;;;;;;29.38;34.44;98255.03;5031813;28;20028;-51
2021/07/31 10:02:03;;;;;;;8.52;2.03;;;;;;;29.00;35.81;98250.63;5047014;28;20029;-51
2021/07/31 10:04:32;;;;;;;11.75;2.42;;;;;;;28.97;36.13;98250.50;5031798;28;20021;-51
2021/07/31 10:07:07;;;;;;;5.20;2.20;;;;;;;28.78;36.72;98249.06;5031680;28;20022;-52
2021/07/31 10:09:33;;;;;;;10.68;1.80;;;;;;;28.94;36.63;98259.28;5031737;28;20095;-51
2021/07/31 10:11:59;;;;;;;9.32;2.10;;;;;;;29.27;36.01;98264.69;5031670;28;20104;-51
2021/07/31 10:14:28;;;;;;;15.35;7.03;;;;;;;29.38;36.06;98265.84;5031613;28;20021;-51
2021/07/31 10:16:55;;;;;;;6.63;1.80;;;;;;;29.66;35.26;98257.88;5031618;28;20037;-51
2021/07/31 10:19:21;;;;;;;5.50;1.63;;;;;;;29.89;34.96;98268.28;5031298;28;20496;-51
2021/07/31 10:22:00;;;;;;;6.40;2.97;;;;;;;29.64;35.13;98272.84;5031586;28;20029;-51
2021/07/31 10:24:28;;;;;;;15.05;10.30;;;;;;;29.62;35.29;98264.28;5046980;28;20049;-51
2021/07/31 10:27:15;;;;;;;8.98;2.40;;;;;;;29.75;35.26;98262.41;5049099;28;20033;-51
2021/07/31 10:29:43;;;;;;;13.02;2.58;;;;;;;29.72;35.25;98263.06;5035453;28;20037;-51
2021/07/31 10:32:35;;;;;;;7.95;1.55;;;;;;;29.78;34.76;98269.84;5035399;28;20503;-51
2021/07/31 10:35:33;;;;;;;6.03;1.70;;;;;;;29.96;34.61;98256.88;5035337;28;20033;-51
2021/07/31 10:38:08;;;;;;;10.60;1.40;;;;;;;30.34;33.97;98250.31;5050598;28;20021;-51
2021/07/31 10:40:40;;;;;;;6.55;1.90;;;;;;;30.94;33.15;98240.41;5035331;28;20030;-51
2021/07/31 10:43:08;;;;;;;6.80;1.83;;;;;;;31.55;31.51;98233.88;5035176;28;20025;-52
2021/07/31 10:45:35;;;;;;;5.57;2.17;;;;;;;31.70;31.27;98224.13;5050463;28;20032;-51
2021/07/31 10:48:06;;;;;;;7.60;2.10;;;;;;;31.60;31.63;98216.53;5050410;28;20577;-51
2021/07/31 10:50:31;;;;;;;9.18;2.10;;;;;;;31.24;32.22;98221.84;5035152;28;20487;-51
2021/07/31 10:53:02;;;;;;;8.85;1.60;;;;;;;30.55;33.13;98221.16;5035043;28;20036;-51
2021/07/31 10:55:36;;;;;;;8.15;2.70;;;;;;;29.97;33.74;98217.88;5034929;28;20057;-50
2021/07/31 10:58:01;;;;;;;7.32;1.77;;;;;;;29.59;33.83;98214.38;5035014;28;20025;-51
2021/07/31 11:00:41;;;;;;;5.53;2.70;;;;;;;29.21;34.66;98204.63;5034900;28;20022;-50
2021/07/31 11:03:18;;;;;;;6.45;1.48;;;;;;;28.77;35.90;98193.47;5034951;28;20028;-51
2021/07/31 11:05:49;;;;;;;6.03;2.38;;;;;;;28.61;36.35;98192.50;5034794;28;20036;-51
2021/07/31 11:08:15;;;;;;;6.93;1.80;;;;;;;28.63;36.90;98193.78;5034773;28;20048;-51
2021/07/31 11:10:46;;;;;;;5.90;2.17;;;;;;;28.57;37.34;98184.28;5034748;28;20030;-51
2021/07/31 11:13:18;;;;;;;11.65;3.50;;;;;;;28.56;37.89;98182.72;5034687;28;20025;-51
2021/07/31 11:15:56;;;;;;;7.32;2.28;;;;;;;28.72;37.02;98177.50;5034586;28;20407;-51
2021/07/31 11:18:23;;;;;;;5.78;1.80;;;;;;;28.89;36.52;98179.22;5034203;28;20156;-51
2021/07/31 11:20:55;;;;;;;9.43;2.20;;;;;;;28.97;36.46;98191.06;5034500;28;20021;-51
2021/07/31 11:23:22;;;;;;;4.63;1.73;;;;;;;28.98;36.81;98190.72;5034544;28;20032;-51
2021/07/31 11:25:48;;;;;;;5.35;1.70;;;;;;;28.95;36.75;98190.59;5034484;28;20437;-51
2021/07/31 11:28:14;;;;;;;5.80;1.92;;;;;;;28.82;37.18;98201.38;5034456;28;20017;-51